createdAt,value
2023-04-18T00:00:17.886Z,31.35
2023-04-18T00:02:49.146Z,31.39
2023-04-18T00:05:21.210Z,31.43
2023-04-18T00:07:52.995Z,31.47
2023-04-18T00:10:24.479Z,31.52
2023-04-18T00:12:55.980Z,31.56
2023-04-18T00:15:27.375Z,31.59
2023-04-18T00:17:58.925Z,31.64
2023-04-18T00:20:30.848Z,31.69
2023-04-18T00:23:02.901Z,31.73
2023-04-18T00:25:36.780Z,31.75
2023-04-18T00:28:08.148Z,31.79
2023-04-18T00:30:39.178Z,31.82
2023-04-18T00:33:11.165Z,31.83
2023-04-18T00:35:42.902Z,32.05
2023-04-18T00:38:14.435Z,32.10
2023-04-18T00:40:49.154Z,32.21
2023-04-18T00:43:23.659Z,32.35
2023-04-18T00:45:55.173Z,32.40
2023-04-18T00:48:27.441Z,32.53
2023-04-18T00:50:59.168Z,32.61
2023-04-18T00:53:31.908Z,32.62
2023-04-18T00:56:02.883Z,32.70
2023-04-18T00:58:34.942Z,32.72
2023-04-18T01:01:06.843Z,32.73
2023-04-18T01:03:38.611Z,32.77
2023-04-18T01:06:11.658Z,32.77
2023-04-18T01:08:44.523Z,32.86
2023-04-18T01:11:15.758Z,32.91
2023-04-18T01:14:01.713Z,32.98
2023-04-18T01:16:39.762Z,33.04
2023-04-18T01:19:12.586Z,33.03
2023-04-18T01:21:45.940Z,33.09
2023-04-18T01:24:18.918Z,33.14
2023-04-18T01:26:51.725Z,33.23
2023-04-18T01:29:23.646Z,33.26
2023-04-18T01:31:55.468Z,33.27
2023-04-18T01:34:26.669Z,33.36
2023-04-18T01:36:58.184Z,33.39
2023-04-18T01:39:30.377Z,33.42
2023-04-18T01:42:03.061Z,33.45
2023-04-18T01:44:34.322Z,33.48
2023-04-18T01:47:05.992Z,33.52
2023-04-18T01:49:37.011Z,33.54
2023-04-18T01:52:08.205Z,33.51
2023-04-18T01:54:39.006Z,33.50
2023-04-18T01:57:10.236Z,33.48
2023-04-18T01:59:41.657Z,33.46
2023-04-18T02:02:12.738Z,33.54
2023-04-18T02:04:43.726Z,33.57
2023-04-18T02:07:15.039Z,33.65
2023-04-18T02:09:46.854Z,33.69
2023-04-18T02:12:18.732Z,33.73
2023-04-18T02:14:54.610Z,33.69
2023-04-18T02:17:26.099Z,33.70
2023-04-18T02:19:58.462Z,33.67
2023-04-18T02:22:30.532Z,33.63
2023-04-18T02:25:05.269Z,33.60
2023-04-18T02:27:35.956Z,33.64
2023-04-18T02:30:08.308Z,33.71
2023-04-18T02:32:40.077Z,33.81
